createdAt,value
2023-05-20T00:00:54.277Z,60.40
2023-05-20T00:03:21.295Z,60.50
2023-05-20T00:05:48.315Z,60.50
2023-05-20T00:08:15.274Z,60.50
2023-05-20T00:10:42.154Z,60.50
2023-05-20T00:13:09.077Z,60.50
2023-05-20T00:15:37.554Z,60.40
2023-05-20T00:18:04.855Z,60.40
2023-05-20T00:20:32.150Z,60.50
2023-05-20T00:22:59.070Z,60.40
2023-05-20T00:25:26.055Z,60.40
2023-05-20T00:27:53.062Z,60.40
2023-05-20T00:30:20.159Z,60.40
2023-05-20T00:32:48.567Z,60.40
2023-05-20T00:35:15.519Z,60.40
2023-05-20T00:37:42.726Z,60.30
2023-05-20T00:40:10.161Z,60.40
2023-05-20T00:42:37.084Z,60.40
2023-05-20T00:45:04.668Z,60.30
2023-05-20T00:47:33.666Z,60.30
2023-05-20T00:50:02.152Z,60.30
2023-05-20T00:52:30.692Z,60.30
2023-05-20T00:54:57.832Z,60.40
2023-05-20T00:57:24.709Z,60.30
2023-05-20T00:59:51.642Z,60.30
2023-05-20T01:02:18.544Z,60.30
2023-05-20T01:04:45.479Z,60.30
2023-05-20T01:07:14.088Z,60.30
2023-05-20T01:09:41.091Z,60.30
2023-05-20T01:12:11.586Z,60.30
2023-05-20T01:14:43.689Z,60.30
2023-05-20T01:17:10.588Z,60.30
2023-05-20T01:19:40.320Z,60.30
2023-05-20T01:22:07.506Z,60.30
2023-05-20T01:24:35.787Z,60.30
2023-05-20T01:27:02.726Z,60.30
2023-05-20T01:29:29.640Z,60.30
2023-05-20T01:31:56.601Z,60.30
2023-05-20T01:34:23.570Z,60.20
2023-05-20T01:36:50.478Z,60.20
2023-05-20T01:39:17.366Z,60.30
2023-05-20T01:41:45.668Z,60.30
2023-05-20T01:44:12.539Z,60.30
2023-05-20T01:46:39.492Z,60.20
2023-05-20T01:49:06.406Z,60.30
2023-05-20T01:51:33.380Z,60.20
2023-05-20T01:54:00.255Z,60.30
2023-05-20T01:56:27.230Z,60.20
2023-05-20T01:58:55.519Z,60.20
2023-05-20T02:01:22.540Z,60.20
2023-05-20T02:03:49.518Z,60.30
2023-05-20T02:06:16.488Z,61.10
2023-05-20T02:08:43.661Z,60.30
2023-05-20T02:11:10.544Z,60.30
2023-05-20T02:13:37.423Z,60.30
2023-05-20T02:16:06.365Z,60.30
2023-05-20T02:18:33.270Z,60.30
2023-05-20T02:21:02.342Z,60.30
2023-05-20T02:23:29.313Z,60.30
2023-05-20T02:25:56.234Z,60.40
2023-05-20T02:28:23.192Z,60.40
2023-05-20T02:30:50.128Z,60.40
2023-05-20T02:33:18.462Z,60.40
2023-05-20T02:35:45.486Z,60.40
2023-05-20T02:38:12.542Z,60.40
2023-05-20T02:40:39.466Z,60.40
2023-05-20T02:43:06.363Z,60.40
2023-05-20T02:45:33.286Z,60.50
2023-05-20T02:48:00.315Z,60.40
2023-05-20T02:50:28.632Z,60.50
2023-05-20T02:52:55.586Z,60.50
2023-05-20T02:55:22.543Z,60.50
2023-05-20T02:57:49.427Z,60.50
2023-05-20T03:00:16.595Z,60.50
2023-05-20T03:02:43.551Z,60.60
2023-05-20T03:05:10.616Z,60.60
2023-05-20T03:07:38.909Z,60.60
2023-05-20T03:10:07.194Z,60.70
2023-05-20T03:12:34.146Z,61.40
2023-05-20T03:15:01.102Z,60.70
2023-05-20T03:17:28.049Z,60.70
2023-05-20T03:19:55.007Z,60.70
2023-05-20T03:22:21.957Z,60.70
2023-05-20T03:24:50.315Z,60.80
2023-05-20T03:27:17.250Z,60.80
2023-05-20T03:29:44.163Z,60.80
2023-05-20T03:32:11.123Z,60.90
2023-05-20T03:34:38.012Z,60.90
2023-05-20T03:37:05.352Z,60.90
2023-05-20T03:39:32.533Z,60.90
2023-05-20T03:42:00.810Z,60.90
2023-05-20T03:44:27.883Z,60.90
2023-05-20T03:46:54.807Z,60.90
2023-05-20T03:49:21.734Z,60.90
2023-05-20T03:51:48.648Z,60.90
2023-05-20T03:54:15.600Z,60.90
2023-05-20T03:56:42.527Z,61.00
2023-05-20T03:59:10.818Z,61.10
2023-05-20T04:01:37.741Z,61.00
2023-05-20T04:04:04.940Z,61.10
2023-05-20T04:06:32.205Z,61.10
2023-05-20T04:08:59.136Z,61.80
2023-05-20T04:11:26.083Z,61.10
2023-05-20T04:13:52.948Z,61.10
2023-05-20T04:16:21.274Z,61.10
2023-05-20T04:18:48.283Z,61.00
2023-05-20T04:21:15.267Z,61.10
2023-05-20T04:23:42.184Z,61.00
2023-05-20T04:26:09.084Z,61.10
2023-05-20T04:28:36.028Z,61.00
2023-05-20T04:31:02.990Z,61.10
2023-05-20T04:33:31.245Z,61.10
2023-05-20T04:35:58.160Z,61.00
2023-05-20T04:38:25.819Z,61.10
2023-05-20T04:40:53.866Z,61.20
2023-05-20T04:43:20.819Z,61.10
2023-05-20T04:45:47.772Z,61.10
2023-05-20T04:48:14.767Z,61.10
2023-05-20T04:50:43.052Z,61.10
2023-05-20T04:53:09.981Z,61.10
2023-05-20T04:55:36.940Z,61.10
2023-05-20T04:58:03.860Z,61.10
2023-05-20T05:00:30.747Z,61.10
2023-05-20T05:02:57.667Z,61.20
2023-05-20T05:05:24.595Z,61.10
2023-05-20T05:07:52.854Z,61.10
2023-05-20T05:10:19.917Z,61.10
2023-05-20T05:12:46.832Z,61.20
2023-05-20T05:15:13.754Z,61.20
2023-05-20T05:17:40.822Z,61.20
2023-05-20T05:20:09.280Z,61.20
2023-05-20T05:22:36.196Z,61.20
2023-05-20T05:25:04.881Z,61.20
2023-05-20T05:27:31.787Z,61.20
2023-05-20T05:29:58.670Z,61.20
2023-05-20T05:32:26.083Z,61.20
2023-05-20T05:34:53.078Z,61.20
2023-05-20T05:37:19.992Z,61.20
2023-05-20T05:39:46.908Z,62.10
2023-05-20T05:42:15.246Z,61.30
2023-05-20T05:44:42.176Z,61.30
2023-05-20T05:47:09.170Z,61.30
2023-05-20T05:49:36.118Z,61.40
2023-05-20T05:52:03.084Z,61.40
2023-05-20T05:54:29.974Z,61.40
2023-05-20T05:56:57.001Z,61.30
2023-05-20T05:59:25.283Z,61.40
2023-05-20T06:01:52.199Z,61.40
2023-05-20T06:04:19.270Z,61.30
2023-05-20T06:06:46.287Z,61.30
2023-05-20T06:09:13.211Z,61.40
2023-05-20T06:11:40.166Z,61.30
2023-05-20T06:14:07.046Z,61.40
2023-05-20T06:16:35.706Z,61.40
2023-05-20T06:19:03.550Z,61.40
2023-05-20T06:21:31.580Z,61.40
2023-05-20T06:23:58.513Z,61.30
2023-05-20T06:26:25.447Z,61.40
2023-05-20T06:28:52.392Z,61.40
2023-05-20T06:31:19.296Z,61.40
2023-05-20T06:33:47.644Z,61.40
2023-05-20T06:36:14.539Z,61.30
2023-05-20T06:38:41.543Z,61.40
2023-05-20T06:41:08.498Z,61.40
2023-05-20T06:43:35.443Z,61.40
2023-05-20T06:46:02.411Z,61.40
2023-05-20T06:48:29.422Z,61.50
2023-05-20T06:50:57.739Z,61.50
2023-05-20T06:53:24.711Z,61.40
2023-05-20T06:55:53.052Z,61.50
2023-05-20T06:58:20.020Z,61.50
2023-05-20T07:00:47.300Z,61.50
2023-05-20T07:03:14.210Z,61.50
2023-05-20T07:05:41.096Z,61.50
2023-05-20T07:08:09.399Z,61.50
2023-05-20T07:10:36.483Z,61.60
2023-05-20T07:13:03.410Z,61.50
2023-05-20T07:15:30.325Z,61.50
2023-05-20T07:17:57.238Z,61.50
2023-05-20T07:20:24.158Z,61.50
2023-05-20T07:22:51.087Z,61.50
2023-05-20T07:25:19.556Z,61.50
2023-05-20T07:27:46.465Z,61.60
2023-05-20T07:30:13.351Z,61.50
2023-05-20T07:32:40.325Z,61.50
2023-05-20T07:35:07.932Z,61.60
2023-05-20T07:37:34.886Z,61.50
2023-05-20T07:40:01.932Z,61.60
2023-05-20T07:42:30.212Z,61.60
2023-05-20T07:44:57.149Z,61.60
2023-05-20T07:47:24.158Z,61.60
2023-05-20T07:49:51.073Z,61.60
2023-05-20T07:52:18.038Z,61.60
2023-05-20T07:54:45.009Z,61.50
2023-05-20T07:57:11.925Z,61.50
2023-05-20T07:59:40.268Z,61.50
2023-05-20T08:02:07.271Z,61.50
2023-05-20T08:04:34.384Z,61.50
2023-05-20T08:07:01.433Z,61.50
2023-05-20T08:09:28.321Z,61.50
2023-05-20T08:11:55.254Z,61.50
2023-05-20T08:14:22.140Z,61.50
2023-05-20T08:16:52.969Z,61.50
2023-05-20T08:19:21.510Z,61.50
2023-05-20T08:21:48.433Z,61.50
2023-05-20T08:24:15.359Z,61.40
2023-05-20T08:26:42.270Z,61.40
2023-05-20T08:29:09.172Z,61.40
2023-05-20T08:31:36.266Z,61.40
2023-05-20T08:34:04.626Z,61.40
2023-05-20T08:36:31.507Z,61.40
2023-05-20T08:38:58.553Z,61.40
2023-05-20T08:41:25.516Z,61.40
2023-05-20T08:43:52.414Z,61.40
2023-05-20T08:46:19.358Z,61.40
2023-05-20T08:48:46.303Z,61.40
2023-05-20T08:51:14.572Z,61.40
2023-05-20T08:53:41.467Z,61.40
2023-05-20T08:56:08.430Z,61.50
2023-05-20T08:58:35.328Z,61.50
2023-05-20T09:01:02.325Z,61.50
2023-05-20T09:03:29.269Z,61.50
2023-05-20T09:06:04.138Z,61.50
2023-05-20T09:08:32.626Z,61.40
2023-05-20T09:10:59.508Z,61.60
2023-05-20T09:13:27.356Z,61.60
2023-05-20T09:15:54.303Z,61.50
2023-05-20T09:18:21.251Z,61.60
2023-05-20T09:20:48.868Z,61.60
2023-05-20T09:23:15.759Z,61.60
2023-05-20T09:25:44.092Z,61.60
2023-05-20T09:28:11.046Z,61.60
2023-05-20T09:30:37.944Z,61.60
2023-05-20T09:33:05.455Z,61.60
2023-05-20T09:35:35.235Z,62.40
2023-05-20T09:38:02.267Z,61.60
2023-05-20T09:40:29.320Z,61.70
2023-05-20T09:43:01.552Z,61.70
2023-05-20T09:45:28.497Z,61.70
2023-05-20T09:47:55.962Z,61.70
2023-05-20T09:50:23.848Z,61.70
2023-05-20T09:52:51.457Z,61.70
2023-05-20T09:55:18.726Z,61.80
2023-05-20T09:57:45.735Z,61.80
2023-05-20T10:00:15.016Z,61.80
2023-05-20T10:02:43.110Z,61.70
2023-05-20T10:05:14.099Z,61.70
2023-05-20T10:07:52.228Z,61.70
2023-05-20T10:10:26.775Z,61.70
2023-05-20T10:12:59.108Z,61.70
2023-05-20T10:15:30.877Z,61.80
2023-05-20T10:18:02.944Z,61.80
2023-05-20T10:20:29.986Z,61.80
2023-05-20T10:22:56.996Z,61.80
2023-05-20T10:25:25.120Z,61.80
2023-05-20T10:27:52.061Z,61.80
2023-05-20T10:30:19.442Z,61.80
2023-05-20T10:32:52.957Z,61.80
2023-05-20T10:35:23.932Z,61.70
2023-05-20T10:37:50.840Z,61.80
2023-05-20T10:40:21.207Z,61.80
2023-05-20T10:42:48.228Z,61.80
2023-05-20T10:45:25.239Z,61.80
2023-05-20T10:47:55.914Z,61.70
2023-05-20T10:50:29.441Z,61.80
2023-05-20T10:53:02.665Z,61.80
2023-05-20T10:55:35.843Z,61.90
2023-05-20T10:58:02.809Z,61.80
2023-05-20T11:00:29.721Z,61.90
2023-05-20T11:02:58.161Z,61.90
2023-05-20T11:05:25.249Z,61.80
2023-05-20T11:08:00.147Z,61.90
2023-05-20T11:10:27.043Z,61.80
2023-05-20T11:12:54.024Z,61.90
2023-05-20T11:15:21.845Z,61.90
2023-05-20T11:17:55.173Z,61.90
2023-05-20T11:20:23.734Z,61.80
2023-05-20T11:22:50.808Z,61.90
2023-05-20T11:25:17.739Z,61.90
2023-05-20T11:27:44.750Z,61.90
2023-05-20T11:30:12.212Z,62.00
2023-05-20T11:32:39.200Z,61.90
2023-05-20T11:35:07.279Z,62.00
2023-05-20T11:37:36.108Z,61.90
2023-05-20T11:40:04.469Z,61.90
2023-05-20T11:42:31.373Z,61.90
2023-05-20T11:45:01.207Z,61.90
2023-05-20T11:47:28.373Z,61.90
2023-05-20T11:49:56.560Z,61.90
2023-05-20T11:52:23.466Z,61.90
2023-05-20T11:54:53.304Z,61.90
2023-05-20T11:57:20.194Z,62.00
2023-05-20T11:59:47.217Z,61.90
2023-05-20T12:02:15.961Z,62.00
2023-05-20T12:04:43.161Z,61.90
2023-05-20T12:07:10.096Z,62.00
2023-05-20T12:09:37.009Z,62.00
2023-05-20T12:12:05.987Z,61.90
2023-05-20T12:14:32.972Z,61.90
2023-05-20T12:16:59.885Z,62.00
2023-05-20T12:19:26.869Z,62.00
2023-05-20T12:21:53.851Z,62.00
2023-05-20T12:24:20.734Z,62.00
2023-05-20T12:26:47.630Z,62.00
2023-05-20T12:29:15.898Z,62.00
2023-05-20T12:31:42.794Z,62.00
2023-05-20T12:34:09.689Z,62.00
2023-05-20T12:36:36.713Z,62.00
2023-05-20T12:39:03.736Z,62.00
2023-05-20T12:41:30.661Z,62.00
2023-05-20T12:43:57.602Z,62.00
2023-05-20T12:46:25.902Z,62.00
2023-05-20T12:48:52.869Z,62.10
2023-05-20T12:51:19.775Z,62.10
2023-05-20T12:53:46.658Z,62.10
2023-05-20T12:56:13.611Z,62.20
2023-05-20T12:58:40.522Z,62.20
2023-05-20T13:01:07.500Z,62.10
2023-05-20T13:03:35.862Z,62.20
2023-05-20T13:06:03.131Z,62.20
2023-05-20T13:08:30.069Z,62.20
2023-05-20T13:10:56.974Z,62.20
2023-05-20T13:13:24.306Z,62.10
2023-05-20T13:15:51.265Z,62.20
2023-05-20T13:18:18.178Z,62.10
2023-05-20T13:20:46.450Z,62.20
2023-05-20T13:23:13.384Z,62.10
2023-05-20T13:25:40.316Z,62.20
2023-05-20T13:28:07.240Z,62.10
2023-05-20T13:30:34.478Z,62.20
2023-05-20T13:33:01.817Z,62.20
2023-05-20T13:35:28.771Z,62.20
2023-05-20T13:37:57.031Z,62.20
2023-05-20T13:40:24.599Z,62.20
2023-05-20T13:42:51.523Z,62.20
2023-05-20T13:45:18.507Z,62.20
2023-05-20T13:47:45.548Z,62.20
2023-05-20T13:50:12.575Z,62.20
2023-05-20T13:52:39.461Z,62.20
2023-05-20T13:55:08.636Z,62.20
2023-05-20T13:57:35.529Z,62.20
2023-05-20T14:00:02.506Z,62.30
2023-05-20T14:02:31.171Z,62.20
2023-05-20T14:04:58.078Z,62.20
2023-05-20T14:07:25.081Z,62.20
2023-05-20T14:09:51.961Z,62.20
2023-05-20T14:12:20.266Z,62.20
2023-05-20T14:14:47.145Z,62.30
2023-05-20T14:17:14.022Z,62.30
2023-05-20T14:19:41.164Z,62.30
2023-05-20T14:22:08.110Z,62.30
2023-05-20T14:24:34.991Z,62.20
2023-05-20T14:27:01.920Z,62.30
2023-05-20T14:29:30.221Z,63.10
2023-05-20T14:31:57.239Z,62.20
2023-05-20T14:34:24.231Z,62.20
2023-05-20T14:36:51.156Z,62.30
2023-05-20T14:39:18.931Z,62.20
2023-05-20T14:41:45.911Z,62.30
2023-05-20T14:44:12.862Z,62.30
2023-05-20T14:46:41.163Z,62.30
2023-05-20T14:49:08.091Z,62.20
2023-05-20T14:51:35.064Z,62.30
2023-05-20T14:54:01.967Z,62.30
2023-05-20T14:56:28.966Z,62.20
2023-05-20T14:58:55.879Z,62.20
2023-05-20T15:01:22.838Z,62.20
2023-05-20T15:03:51.170Z,62.20
2023-05-20T15:06:18.242Z,62.20
2023-05-20T15:08:45.224Z,62.20
2023-05-20T15:11:12.138Z,62.20
2023-05-20T15:13:40.427Z,62.20
2023-05-20T15:16:07.609Z,62.20
2023-05-20T15:18:34.528Z,62.20
2023-05-20T15:21:02.889Z,62.10
2023-05-20T15:23:29.815Z,62.20
2023-05-20T15:25:56.737Z,62.20
2023-05-20T15:28:23.668Z,62.40
2023-05-20T15:30:53.902Z,62.30
2023-05-20T15:33:20.908Z,62.20
2023-05-20T15:35:48.058Z,62.20
2023-05-20T15:38:16.456Z,62.10
2023-05-20T15:40:43.372Z,62.10
2023-05-20T15:43:10.300Z,62.00
2023-05-20T15:45:37.215Z,61.90
2023-05-20T15:48:04.551Z,62.00
2023-05-20T15:50:31.552Z,61.90
2023-05-20T15:52:58.578Z,62.00
2023-05-20T15:55:26.889Z,62.00
2023-05-20T15:57:53.821Z,62.00
2023-05-20T16:00:21.515Z,61.90
2023-05-20T16:02:48.512Z,62.00
2023-05-20T16:05:15.654Z,61.80
2023-05-20T16:07:42.589Z,61.80
2023-05-20T16:10:10.391Z,62.10
2023-05-20T16:12:38.908Z,62.10
2023-05-20T16:15:06.938Z,62.10
2023-05-20T16:17:33.877Z,62.30
2023-05-20T16:20:00.806Z,62.40
2023-05-20T16:22:28.533Z,62.50
2023-05-20T16:24:55.416Z,62.60
2023-05-20T16:27:22.311Z,62.60
2023-05-20T16:29:50.667Z,62.60
2023-05-20T16:32:17.587Z,62.60
2023-05-20T16:34:44.486Z,62.60
2023-05-20T16:37:11.983Z,62.60
2023-05-20T16:39:38.969Z,62.50
2023-05-20T16:42:06.122Z,62.60
2023-05-20T16:44:33.035Z,62.50
2023-05-20T16:47:01.310Z,62.60
2023-05-20T16:49:28.213Z,62.70
2023-05-20T16:51:55.198Z,62.80
2023-05-20T16:54:22.189Z,62.70
2023-05-20T16:56:49.599Z,62.70
2023-05-20T16:59:16.519Z,62.70
2023-05-20T17:01:43.452Z,62.80
2023-05-20T17:04:11.768Z,62.70
2023-05-20T17:06:38.856Z,62.70
2023-05-20T17:09:05.827Z,62.70
2023-05-20T17:11:32.900Z,62.70
2023-05-20T17:13:59.860Z,62.60
2023-05-20T17:16:26.816Z,62.80
2023-05-20T17:18:53.883Z,62.50
2023-05-20T17:21:22.275Z,62.50
2023-05-20T17:23:49.217Z,62.70
2023-05-20T17:26:16.272Z,62.70
2023-05-20T17:28:43.170Z,62.50
2023-05-20T17:31:10.084Z,62.20
2023-05-20T17:33:37.064Z,62.20
2023-05-20T17:36:04.441Z,62.10
2023-05-20T17:38:32.746Z,62.30
2023-05-20T17:41:01.059Z,62.50
2023-05-20T17:43:28.081Z,62.70
2023-05-20T17:45:55.017Z,62.80
2023-05-20T17:48:21.936Z,62.80
2023-05-20T17:50:48.988Z,62.80
2023-05-20T17:53:15.914Z,62.80
2023-05-20T17:55:44.213Z,62.80
2023-05-20T17:58:11.128Z,62.80
2023-05-20T18:00:38.024Z,62.80
2023-05-20T18:03:05.105Z,62.80
2023-05-20T18:05:32.105Z,62.80
2023-05-20T18:07:59.017Z,62.90
2023-05-20T18:10:26.340Z,62.90
2023-05-20T18:12:54.664Z,63.00
2023-05-20T18:15:21.852Z,63.20
2023-05-20T18:17:48.960Z,63.40
2023-05-20T18:20:17.123Z,63.80
2023-05-20T18:22:44.059Z,63.70
2023-05-20T18:25:11.637Z,63.90
2023-05-20T18:27:38.592Z,63.90
2023-05-20T18:30:07.953Z,63.90
2023-05-20T18:32:34.882Z,63.90
2023-05-20T18:35:01.899Z,64.00
2023-05-20T18:37:29.109Z,64.00
2023-05-20T18:39:56.038Z,64.00
2023-05-20T18:42:23.150Z,64.10
2023-05-20T18:44:50.068Z,64.20
2023-05-20T18:47:18.374Z,64.10
2023-05-20T18:49:45.300Z,64.10
2023-05-20T18:52:12.203Z,64.10
2023-05-20T18:54:39.121Z,64.20
2023-05-20T18:57:06.277Z,64.20
2023-05-20T18:59:33.184Z,64.30
2023-05-20T19:02:00.138Z,64.40
2023-05-20T19:04:28.460Z,64.50
2023-05-20T19:06:55.404Z,64.60
2023-05-20T19:09:22.314Z,64.70
2023-05-20T19:11:49.230Z,64.90
2023-05-20T19:14:16.137Z,65.00
2023-05-20T19:16:43.076Z,65.10
2023-05-20T19:19:10.172Z,65.20
2023-05-20T19:21:38.485Z,65.30
2023-05-20T19:24:05.866Z,65.30
2023-05-20T19:26:32.762Z,65.30
2023-05-20T19:28:59.686Z,65.50
2023-05-20T19:31:26.651Z,65.60
2023-05-20T19:33:53.733Z,65.50
2023-05-20T19:36:20.697Z,65.60
2023-05-20T19:38:49.023Z,65.70
2023-05-20T19:41:15.918Z,65.70
2023-05-20T19:43:42.932Z,65.70
2023-05-20T19:46:09.960Z,65.70
2023-05-20T19:48:36.892Z,65.70
2023-05-20T19:51:03.969Z,65.70
2023-05-20T19:53:30.848Z,65.80
2023-05-20T19:55:59.157Z,65.90
2023-05-20T19:58:26.055Z,66.00
2023-05-20T20:00:53.000Z,65.90
2023-05-20T20:03:19.905Z,65.90
2023-05-20T20:05:46.866Z,65.80
2023-05-20T20:08:13.897Z,65.60
2023-05-20T20:10:40.836Z,65.60
2023-05-20T20:13:09.107Z,65.60
2023-05-20T20:15:36.128Z,65.70
2023-05-20T20:18:03.493Z,65.70
2023-05-20T20:20:30.424Z,65.70
2023-05-20T20:22:57.346Z,65.80
2023-05-20T20:25:24.262Z,65.80
2023-05-20T20:27:51.228Z,65.80
2023-05-20T20:30:19.533Z,65.80
2023-05-20T20:32:46.470Z,65.90
2023-05-20T20:35:13.381Z,66.00
2023-05-20T20:37:40.286Z,66.00
2023-05-20T20:40:08.330Z,66.10
2023-05-20T20:42:35.239Z,66.20
2023-05-20T20:45:02.251Z,66.40
2023-05-20T20:47:30.548Z,66.40
2023-05-20T20:49:57.478Z,66.40
2023-05-20T20:52:24.385Z,66.40
2023-05-20T20:54:51.271Z,66.40
2023-05-20T20:57:18.171Z,66.50
2023-05-20T20:59:45.118Z,66.50
2023-05-20T21:02:12.040Z,66.50
2023-05-20T21:04:40.521Z,66.60
2023-05-20T21:07:07.529Z,66.70
2023-05-20T21:09:34.814Z,66.80
2023-05-20T21:12:01.717Z,66.80
2023-05-20T21:14:28.609Z,66.80
2023-05-20T21:16:55.685Z,66.90
2023-05-20T21:19:22.650Z,67.00
2023-05-20T21:21:50.977Z,67.00
2023-05-20T21:24:17.874Z,67.10
2023-05-20T21:26:44.840Z,67.10
2023-05-20T21:29:11.778Z,67.10
2023-05-20T21:31:38.733Z,67.10
2023-05-20T21:34:05.690Z,67.10
2023-05-20T21:36:32.590Z,67.10
2023-05-20T21:39:00.869Z,67.10
2023-05-20T21:41:27.749Z,67.10
2023-05-20T21:43:54.653Z,67.20
2023-05-20T21:46:21.722Z,67.30
2023-05-20T21:48:48.726Z,67.20
2023-05-20T21:51:15.744Z,67.10
2023-05-20T21:53:42.850Z,66.90
2023-05-20T21:56:11.183Z,66.80
2023-05-20T21:58:38.108Z,66.70
2023-05-20T22:01:05.076Z,66.50
2023-05-20T22:03:32.108Z,66.30
2023-05-20T22:05:59.076Z,66.30
2023-05-20T22:08:25.992Z,66.20
2023-05-20T22:10:52.910Z,66.10
2023-05-20T22:13:21.192Z,66.00
2023-05-20T22:15:48.223Z,66.00
2023-05-20T22:18:15.223Z,65.90
2023-05-20T22:20:42.199Z,65.90
2023-05-20T22:23:09.082Z,65.90
2023-05-20T22:25:36.282Z,66.00
2023-05-20T22:28:03.632Z,66.00
2023-05-20T22:30:31.977Z,66.00
2023-05-20T22:32:58.910Z,66.10
2023-05-20T22:35:25.908Z,66.00
2023-05-20T22:37:52.862Z,65.90
2023-05-20T22:40:19.787Z,65.90
2023-05-20T22:42:46.703Z,65.90
2023-05-20T22:45:13.637Z,66.60
2023-05-20T22:47:42.047Z,65.70
2023-05-20T22:50:09.108Z,65.70
2023-05-20T22:52:36.043Z,65.60
2023-05-20T22:55:02.997Z,65.60
2023-05-20T22:57:29.904Z,65.60
2023-05-20T22:59:56.854Z,65.60
2023-05-20T23:02:23.807Z,65.50
2023-05-20T23:04:52.163Z,65.50
2023-05-20T23:07:19.161Z,65.40
2023-05-20T23:09:46.078Z,65.40
2023-05-20T23:12:12.980Z,65.50
2023-05-20T23:14:39.892Z,65.40
2023-05-20T23:17:07.087Z,65.40
2023-05-20T23:19:34.131Z,65.40
2023-05-20T23:22:02.464Z,65.30
2023-05-20T23:24:29.460Z,65.30
2023-05-20T23:26:56.378Z,65.30
2023-05-20T23:29:23.298Z,65.30
2023-05-20T23:31:50.969Z,65.30
2023-05-20T23:34:18.250Z,65.30
2023-05-20T23:36:45.199Z,65.30
2023-05-20T23:39:13.498Z,65.30
2023-05-20T23:41:40.392Z,65.30
2023-05-20T23:44:07.309Z,65.30
2023-05-20T23:46:34.291Z,65.30
2023-05-20T23:49:01.270Z,65.30
2023-05-20T23:51:28.208Z,65.30
2023-05-20T23:53:55.160Z,65.30
2023-05-20T23:56:23.572Z,65.30
2023-05-20T23:58:50.507Z,65.30
